sensor_id;sensor_type;location;lat;lon;timestamp;P1;durP1;ratioP1;P2;durP2;ratioP2
27303;SDS011;14791;52.392;13.092;2022-07-29T00:02:07;2.00;;;1.90;;
27303;SDS011;14791;52.392;13.092;2022-07-29T00:04:36;2.08;;;1.92;;
27303;SDS011;14791;52.392;13.092;2022-07-29T00:07:05;1.77;;;1.70;;
27303;SDS011;14791;52.392;13.092;2022-07-29T00:09:34;1.87;;;1.77;;
27303;SDS011;14791;52.392;13.092;2022-07-29T00:12:03;3.22;;;1.60;;
27303;SDS011;14791;52.392;13.092;2022-07-29T00:14:32;2.30;;;2.10;;
27303;SDS011;14791;52.392;13.092;2022-07-29T00:17:01;2.20;;;1.92;;
27303;SDS011;14791;52.392;13.092;2022-07-29T00:19:30;1.72;;;1.62;;
27303;SDS011;14791;52.392;13.092;2022-07-29T00:21:59;2.20;;;2.00;;
27303;SDS011;14791;52.392;13.092;2022-07-29T00:24:29;1.67;;;1.67;;
27303;SDS011;14791;52.392;13.092;2022-07-29T00:26:57;1.85;;;1.77;;
27303;SDS011;14791;52.392;13.092;2022-07-29T00:29:26;2.20;;;2.10;;
27303;SDS011;14791;52.392;13.092;2022-07-29T00:31:55;2.08;;;1.98;;
27303;SDS011;14791;52.392;13.092;2022-07-29T00:34:24;2.10;;;2.00;;
27303;SDS011;14791;52.392;13.092;2022-07-29T00:37:11;1.47;;;1.47;;
27303;SDS011;14791;52.392;13.092;2022-07-29T00:39:39;2.17;;;2.08;;
27303;SDS011;14791;52.392;13.092;2022-07-29T00:42:08;2.05;;;1.95;;
27303;SDS011;14791;52.392;13.092;2022-07-29T00:44:40;2.20;;;2.10;;
27303;SDS011;14791;52.392;13.092;2022-07-29T00:47:10;1.75;;;1.65;;
27303;SDS011;14791;52.392;13.092;2022-07-29T00:49:40;1.82;;;1.72;;
27303;SDS011;14791;52.392;13.092;2022-07-29T00:52:10;1.87;;;1.77;;
27303;SDS011;14791;52.392;13.092;2022-07-29T00:54:40;2.10;;;2.00;;
27303;SDS011;14791;52.392;13.092;2022-07-29T00:57:09;2.02;;;1.92;;
27303;SDS011;14791;52.392;13.092;2022-07-29T00:59:38;2.35;;;2.22;;
27303;SDS011;14791;52.392;13.092;2022-07-29T01:02:07;1.52;;;1.52;;
27303;SDS011;14791;52.392;13.092;2022-07-29T01:04:36;2.08;;;1.80;;
27303;SDS011;14791;52.392;13.092;2022-07-29T01:07:05;2.25;;;1.95;;
27303;SDS011;14791;52.392;13.092;2022-07-29T01:09:34;1.85;;;1.75;;
27303;SDS011;14791;52.392;13.092;2022-07-29T01:12:06;2.20;;;2.10;;
27303;SDS011;14791;52.392;13.092;2022-07-29T01:14:36;2.00;;;1.90;;
27303;SDS011;14791;52.392;13.092;2022-07-29T01:17:18;2.50;;;2.40;;
27303;SDS011;14791;52.392;13.092;2022-07-29T01:19:48;2.05;;;1.95;;
27303;SDS011;14791;52.392;13.092;2022-07-29T01:22:31;2.10;;;2.00;;
27303;SDS011;14791;52.392;13.092;2022-07-29T01:31:02;1.95;;;1.85;;
27303;SDS011;14791;52.392;13.092;2022-07-29T01:33:33;2.12;;;2.02;;
27303;SDS011;14791;52.392;13.092;2022-07-29T01:36:23;2.02;;;1.92;;
27303;SDS011;14791;52.392;13.092;2022-07-29T01:38:57;1.70;;;1.70;;
27303;SDS011;14791;52.392;13.092;2022-07-29T01:41:32;1.62;;;1.62;;
27303;SDS011;14791;52.392;13.092;2022-07-29T01:44:18;2.08;;;1.98;;
27303;SDS011;14791;52.392;13.092;2022-07-29T01:46:50;1.30;;;1.30;;
27303;SDS011;14791;52.392;13.092;2022-07-29T01:49:21;1.70;;;1.60;;
27303;SDS011;14791;52.392;13.092;2022-07-29T01:51:54;1.87;;;1.87;;
27303;SDS011;14791;52.392;13.092;2022-07-29T01:54:32;1.82;;;1.82;;
27303;SDS011;14791;52.392;13.092;2022-07-29T01:57:02;1.95;;;1.85;;
27303;SDS011;14791;52.392;13.092;2022-07-29T01:59:33;2.25;;;1.65;;
27303;SDS011;14791;52.392;13.092;2022-07-29T02:02:05;1.80;;;1.70;;
27303;SDS011;14791;52.392;13.092;2022-07-29T02:04:36;2.22;;;1.90;;
27303;SDS011;14791;52.392;13.092;2022-07-29T02:07:07;1.72;;;1.72;;
27303;SDS011;14791;52.392;13.092;2022-07-29T02:09:39;1.98;;;1.98;;
27303;SDS011;14791;52.392;13.092;2022-07-29T02:12:09;2.08;;;1.90;;
27303;SDS011;14791;52.392;13.092;2022-07-29T02:14:42;1.45;;;1.42;;
27303;SDS011;14791;52.392;13.092;2022-07-29T02:17:13;2.60;;;2.05;;
27303;SDS011;14791;52.392;13.092;2022-07-29T02:19:43;1.95;;;1.85;;
27303;SDS011;14791;52.392;13.092;2022-07-29T02:22:14;2.05;;;1.95;;
27303;SDS011;14791;52.392;13.092;2022-07-29T02:24:44;2.27;;;2.10;;
27303;SDS011;14791;52.392;13.092;2022-07-29T02:27:14;2.25;;;2.05;;
27303;SDS011;14791;52.392;13.092;2022-07-29T02:29:46;1.98;;;1.87;;
27303;SDS011;14791;52.392;13.092;2022-07-29T02:32:17;1.67;;;1.57;;
27303;SDS011;14791;52.392;13.092;2022-07-29T02:34:46;1.82;;;1.72;;
27303;SDS011;14791;52.392;13.092;2022-07-29T02:37:16;2.40;;;2.00;;
27303;SDS011;14791;52.392;13.092;2022-07-29T02:39:47;2.17;;;2.08;;
27303;SDS011;14791;52.392;13.092;2022-07-29T02:42:18;1.82;;;1.72;;
27303;SDS011;14791;52.392;13.092;2022-07-29T02:44:50;2.40;;;2.30;;
27303;SDS011;14791;52.392;13.092;2022-07-29T02:50:22;1.60;;;1.60;;
27303;SDS011;14791;52.392;13.092;2022-07-29T02:53:00;2.10;;;2.00;;
27303;SDS011;14791;52.392;13.092;2022-07-29T02:55:34;2.05;;;2.05;;
27303;SDS011;14791;52.392;13.092;2022-07-29T02:58:28;1.87;;;1.77;;
27303;SDS011;14791;52.392;13.092;2022-07-29T03:01:07;3.87;;;1.50;;
27303;SDS011;14791;52.392;13.092;2022-07-29T03:03:36;2.47;;;2.05;;
27303;SDS011;14791;52.392;13.092;2022-07-29T03:06:06;2.37;;;2.17;;
27303;SDS011;14791;52.392;13.092;2022-07-29T03:08:36;1.95;;;1.87;;
27303;SDS011;14791;52.392;13.092;2022-07-29T03:11:05;1.67;;;1.67;;
27303;SDS011;14791;52.392;13.092;2022-07-29T03:13:36;2.08;;;1.98;;
27303;SDS011;14791;52.392;13.092;2022-07-29T03:16:07;2.12;;;2.02;;
27303;SDS011;14791;52.392;13.092;2022-07-29T03:18:37;2.30;;;2.20;;
27303;SDS011;14791;52.392;13.092;2022-07-29T03:21:06;2.10;;;2.00;;
27303;SDS011;14791;52.392;13.092;2022-07-29T03:23:36;2.08;;;2.00;;
27303;SDS011;14791;52.392;13.092;2022-07-29T03:26:04;2.00;;;1.90;;
27303;SDS011;14791;52.392;13.092;2022-07-29T03:28:34;1.55;;;1.55;;
27303;SDS011;14791;52.392;13.092;2022-07-29T03:31:02;2.15;;;2.05;;
27303;SDS011;14791;52.392;13.092;2022-07-29T03:33:31;1.95;;;1.92;;
27303;SDS011;14791;52.392;13.092;2022-07-29T03:36:00;1.98;;;1.87;;
27303;SDS011;14791;52.392;13.092;2022-07-29T03:38:29;1.72;;;1.62;;
27303;SDS011;14791;52.392;13.092;2022-07-29T03:41:01;2.10;;;2.00;;
27303;SDS011;14791;52.392;13.092;2022-07-29T03:43:35;1.87;;;1.77;;
27303;SDS011;14791;52.392;13.092;2022-07-29T03:46:06;1.60;;;1.50;;
27303;SDS011;14791;52.392;13.092;2022-07-29T03:48:39;1.82;;;1.72;;
27303;SDS011;14791;52.392;13.092;2022-07-29T03:51:09;1.45;;;1.45;;
27303;SDS011;14791;52.392;13.092;2022-07-29T03:53:38;2.00;;;1.90;;
27303;SDS011;14791;52.392;13.092;2022-07-29T03:56:08;1.65;;;1.65;;
27303;SDS011;14791;52.392;13.092;2022-07-29T03:58:40;2.00;;;1.90;;
27303;SDS011;14791;52.392;13.092;2022-07-29T04:01:09;2.00;;;1.85;;
27303;SDS011;14791;52.392;13.092;2022-07-29T04:03:45;1.80;;;1.80;;
27303;SDS011;14791;52.392;13.092;2022-07-29T04:06:14;2.05;;;1.87;;
27303;SDS011;14791;52.392;13.092;2022-07-29T04:08:43;1.72;;;1.72;;
27303;SDS011;14791;52.392;13.092;2022-07-29T04:11:12;2.08;;;1.95;;
27303;SDS011;14791;52.392;13.092;2022-07-29T04:13:41;1.90;;;1.57;;
27303;SDS011;14791;52.392;13.092;2022-07-29T04:16:10;1.50;;;1.50;;
27303;SDS011;14791;52.392;13.092;2022-07-29T04:18:39;1.90;;;1.80;;
27303;SDS011;14791;52.392;13.092;2022-07-29T04:21:08;1.65;;;1.65;;
27303;SDS011;14791;52.392;13.092;2022-07-29T04:23:37;1.80;;;1.70;;
27303;SDS011;14791;52.392;13.092;2022-07-29T04:26:05;1.90;;;1.80;;
27303;SDS011;14791;52.392;13.092;2022-07-29T04:28:41;2.25;;;2.15;;
27303;SDS011;14791;52.392;13.092;2022-07-29T04:31:10;2.08;;;1.80;;
27303;SDS011;14791;52.392;13.092;2022-07-29T04:33:39;4.85;;;2.15;;
27303;SDS011;14791;52.392;13.092;2022-07-29T04:36:08;1.85;;;1.75;;
27303;SDS011;14791;52.392;13.092;2022-07-29T04:38:38;2.08;;;1.85;;
27303;SDS011;14791;52.392;13.092;2022-07-29T04:41:07;1.92;;;1.85;;
27303;SDS011;14791;52.392;13.092;2022-07-29T04:43:36;1.75;;;1.75;;
27303;SDS011;14791;52.392;13.092;2022-07-29T04:46:05;1.75;;;1.65;;
27303;SDS011;14791;52.392;13.092;2022-07-29T04:48:36;2.22;;;1.80;;
27303;SDS011;14791;52.392;13.092;2022-07-29T04:51:05;2.02;;;1.92;;
27303;SDS011;14791;52.392;13.092;2022-07-29T04:53:34;3.10;;;2.30;;
27303;SDS011;14791;52.392;13.092;2022-07-29T04:56:03;1.72;;;1.72;;
27303;SDS011;14791;52.392;13.092;2022-07-29T04:58:38;1.60;;;1.60;;
27303;SDS011;14791;52.392;13.092;2022-07-29T05:01:03;2.15;;;1.52;;
27303;SDS011;14791;52.392;13.092;2022-07-29T05:03:32;1.42;;;1.42;;
27303;SDS011;14791;52.392;13.092;2022-07-29T05:06:01;1.85;;;1.50;;
27303;SDS011;14791;52.392;13.092;2022-07-29T05:08:30;1.60;;;1.60;;
27303;SDS011;14791;52.392;13.092;2022-07-29T05:10:59;3.35;;;1.98;;
27303;SDS011;14791;52.392;13.092;2022-07-29T05:13:28;2.22;;;2.00;;
27303;SDS011;14791;52.392;13.092;2022-07-29T05:15:57;1.85;;;1.85;;
27303;SDS011;14791;52.392;13.092;2022-07-29T05:18:26;3.22;;;1.55;;
27303;SDS011;14791;52.392;13.092;2022-07-29T05:20:55;1.45;;;1.45;;
27303;SDS011;14791;52.392;13.092;2022-07-29T05:23:24;3.10;;;2.90;;
27303;SDS011;14791;52.392;13.092;2022-07-29T05:25:53;2.58;;;2.37;;
27303;SDS011;14791;52.392;13.092;2022-07-29T05:28:22;1.85;;;1.75;;
27303;SDS011;14791;52.392;13.092;2022-07-29T05:30:51;1.90;;;1.80;;
27303;SDS011;14791;52.392;13.092;2022-07-29T05:33:19;1.57;;;1.57;;
27303;SDS011;14791;52.392;13.092;2022-07-29T05:35:48;1.67;;;1.67;;
27303;SDS011;14791;52.392;13.092;2022-07-29T05:38:17;1.82;;;1.72;;
27303;SDS011;14791;52.392;13.092;2022-07-29T05:40:46;1.72;;;1.62;;
27303;SDS011;14791;52.392;13.092;2022-07-29T05:43:15;2.80;;;1.50;;
27303;SDS011;14791;52.392;13.092;2022-07-29T05:45:44;1.70;;;1.60;;
27303;SDS011;14791;52.392;13.092;2022-07-29T05:48:13;2.00;;;1.90;;
27303;SDS011;14791;52.392;13.092;2022-07-29T05:50:42;1.65;;;1.60;;
27303;SDS011;14791;52.392;13.092;2022-07-29T05:53:12;1.60;;;1.60;;
27303;SDS011;14791;52.392;13.092;2022-07-29T05:55:41;1.62;;;1.62;;
27303;SDS011;14791;52.392;13.092;2022-07-29T05:58:10;1.35;;;1.27;;
27303;SDS011;14791;52.392;13.092;2022-07-29T06:00:39;1.70;;;1.60;;
27303;SDS011;14791;52.392;13.092;2022-07-29T06:03:08;1.52;;;1.45;;
27303;SDS011;14791;52.392;13.092;2022-07-29T06:05:37;1.80;;;1.70;;
27303;SDS011;14791;52.392;13.092;2022-07-29T06:08:06;1.80;;;1.57;;
27303;SDS011;14791;52.392;13.092;2022-07-29T06:10:35;1.37;;;1.37;;
27303;SDS011;14791;52.392;13.092;2022-07-29T06:13:04;1.32;;;1.25;;
27303;SDS011;14791;52.392;13.092;2022-07-29T06:15:33;1.70;;;1.60;;
27303;SDS011;14791;52.392;13.092;2022-07-29T06:18:02;1.60;;;1.50;;
27303;SDS011;14791;52.392;13.092;2022-07-29T06:20:32;1.40;;;1.40;;
27303;SDS011;14791;52.392;13.092;2022-07-29T06:23:02;1.52;;;1.47;;
27303;SDS011;14791;52.392;13.092;2022-07-29T06:25:31;1.45;;;1.45;;
27303;SDS011;14791;52.392;13.092;2022-07-29T06:28:02;1.40;;;1.40;;
27303;SDS011;14791;52.392;13.092;2022-07-29T06:30:31;2.35;;;1.50;;
27303;SDS011;14791;52.392;13.092;2022-07-29T06:33:00;1.52;;;1.52;;
27303;SDS011;14791;52.392;13.092;2022-07-29T06:35:29;1.67;;;1.57;;
27303;SDS011;14791;52.392;13.092;2022-07-29T06:38:00;2.17;;;2.08;;
27303;SDS011;14791;52.392;13.092;2022-07-29T06:40:29;2.55;;;1.60;;
27303;SDS011;14791;52.392;13.092;2022-07-29T06:43:16;1.37;;;1.37;;
27303;SDS011;14791;52.392;13.092;2022-07-29T06:45:45;1.30;;;1.30;;
27303;SDS011;14791;52.392;13.092;2022-07-29T06:48:14;2.05;;;1.80;;
27303;SDS011;14791;52.392;13.092;2022-07-29T06:50:43;1.60;;;1.50;;
27303;SDS011;14791;52.392;13.092;2022-07-29T06:53:11;1.50;;;1.40;;
27303;SDS011;14791;52.392;13.092;2022-07-29T06:55:40;1.57;;;1.57;;
27303;SDS011;14791;52.392;13.092;2022-07-29T06:58:09;1.62;;;1.52;;
27303;SDS011;14791;52.392;13.092;2022-07-29T07:00:38;1.70;;;1.60;;
27303;SDS011;14791;52.392;13.092;2022-07-29T07:03:07;1.52;;;1.42;;
27303;SDS011;14791;52.392;13.092;2022-07-29T07:05:36;2.45;;;1.60;;
27303;SDS011;14791;52.392;13.092;2022-07-29T07:08:05;1.75;;;1.65;;
27303;SDS011;14791;52.392;13.092;2022-07-29T07:10:35;2.40;;;1.55;;
27303;SDS011;14791;52.392;13.092;2022-07-29T07:13:04;2.83;;;1.62;;
27303;SDS011;14791;52.392;13.092;2022-07-29T07:15:35;1.57;;;1.57;;
27303;SDS011;14791;52.392;13.092;2022-07-29T07:18:04;1.70;;;1.60;;
27303;SDS011;14791;52.392;13.092;2022-07-29T07:20:34;1.77;;;1.67;;
27303;SDS011;14791;52.392;13.092;2022-07-29T07:23:03;1.82;;;1.70;;
27303;SDS011;14791;52.392;13.092;2022-07-29T07:25:32;1.70;;;1.65;;
27303;SDS011;14791;52.392;13.092;2022-07-29T07:28:02;2.87;;;1.80;;
27303;SDS011;14791;52.392;13.092;2022-07-29T07:30:32;1.50;;;1.50;;
27303;SDS011;14791;52.392;13.092;2022-07-29T07:33:01;2.95;;;1.62;;
27303;SDS011;14791;52.392;13.092;2022-07-29T07:35:30;1.90;;;1.80;;
27303;SDS011;14791;52.392;13.092;2022-07-29T07:37:59;2.33;;;2.12;;
27303;SDS011;14791;52.392;13.092;2022-07-29T07:40:28;1.30;;;1.20;;
27303;SDS011;14791;52.392;13.092;2022-07-29T07:42:57;1.40;;;1.40;;
27303;SDS011;14791;52.392;13.092;2022-07-29T07:45:26;5.83;;;1.65;;
27303;SDS011;14791;52.392;13.092;2022-07-29T07:47:55;1.57;;;1.55;;
27303;SDS011;14791;52.392;13.092;2022-07-29T07:50:24;1.60;;;1.50;;
27303;SDS011;14791;52.392;13.092;2022-07-29T07:52:54;2.47;;;1.82;;
27303;SDS011;14791;52.392;13.092;2022-07-29T07:55:28;1.50;;;1.40;;
27303;SDS011;14791;52.392;13.092;2022-07-29T07:57:57;1.85;;;1.75;;
27303;SDS011;14791;52.392;13.092;2022-07-29T08:00:25;1.42;;;1.32;;
27303;SDS011;14791;52.392;13.092;2022-07-29T08:02:55;1.47;;;1.47;;
27303;SDS011;14791;52.392;13.092;2022-07-29T08:05:23;1.40;;;1.40;;
27303;SDS011;14791;52.392;13.092;2022-07-29T08:07:53;1.70;;;1.60;;
27303;SDS011;14791;52.392;13.092;2022-07-29T08:10:21;1.80;;;1.80;;
27303;SDS011;14791;52.392;13.092;2022-07-29T08:13:09;3.75;;;1.70;;
27303;SDS011;14791;52.392;13.092;2022-07-29T08:15:40;2.00;;;1.75;;
27303;SDS011;14791;52.392;13.092;2022-07-29T08:18:11;3.55;;;1.12;;
27303;SDS011;14791;52.392;13.092;2022-07-29T08:20:41;1.80;;;1.40;;
27303;SDS011;14791;52.392;13.092;2022-07-29T08:23:10;1.17;;;1.17;;
27303;SDS011;14791;52.392;13.092;2022-07-29T08:25:39;1.20;;;1.20;;
27303;SDS011;14791;52.392;13.092;2022-07-29T08:28:08;1.60;;;1.47;;
27303;SDS011;14791;52.392;13.092;2022-07-29T08:30:37;1.80;;;1.80;;
27303;SDS011;14791;52.392;13.092;2022-07-29T08:33:06;1.52;;;1.52;;
27303;SDS011;14791;52.392;13.092;2022-07-29T08:35:35;1.50;;;1.50;;
27303;SDS011;14791;52.392;13.092;2022-07-29T08:38:04;1.20;;;1.20;;
27303;SDS011;14791;52.392;13.092;2022-07-29T08:40:33;1.62;;;1.57;;
27303;SDS011;14791;52.392;13.092;2022-07-29T08:43:05;1.10;;;1.10;;
27303;SDS011;14791;52.392;13.092;2022-07-29T08:45:43;0.90;;;0.90;;
27303;SDS011;14791;52.392;13.092;2022-07-29T08:48:17;1.00;;;1.00;;
27303;SDS011;14791;52.392;13.092;2022-07-29T08:50:48;1.00;;;1.00;;
27303;SDS011;14791;52.392;13.092;2022-07-29T08:53:20;0.88;;;0.88;;
27303;SDS011;14791;52.392;13.092;2022-07-29T08:55:51;1.10;;;1.10;;
27303;SDS011;14791;52.392;13.092;2022-07-29T08:58:21;2.65;;;1.02;;
27303;SDS011;14791;52.392;13.092;2022-07-29T09:00:52;1.00;;;1.00;;
27303;SDS011;14791;52.392;13.092;2022-07-29T09:03:23;1.10;;;1.10;;
27303;SDS011;14791;52.392;13.092;2022-07-29T09:05:54;1.00;;;1.00;;
27303;SDS011;14791;52.392;13.092;2022-07-29T09:08:23;0.90;;;0.90;;
27303;SDS011;14791;52.392;13.092;2022-07-29T09:10:52;1.15;;;1.15;;
27303;SDS011;14791;52.392;13.092;2022-07-29T09:13:26;1.35;;;1.35;;
27303;SDS011;14791;52.392;13.092;2022-07-29T09:15:55;1.20;;;1.20;;
27303;SDS011;14791;52.392;13.092;2022-07-29T09:18:45;1.10;;;1.10;;
27303;SDS011;14791;52.392;13.092;2022-07-29T09:21:06;1.07;;;0.98;;
27303;SDS011;14791;52.392;13.092;2022-07-29T09:24:01;1.30;;;1.20;;
27303;SDS011;14791;52.392;13.092;2022-07-29T09:26:33;2.27;;;1.00;;
27303;SDS011;14791;52.392;13.092;2022-07-29T09:29:13;1.75;;;1.20;;
27303;SDS011;14791;52.392;13.092;2022-07-29T09:31:42;1.32;;;1.27;;
27303;SDS011;14791;52.392;13.092;2022-07-29T09:34:13;1.10;;;1.10;;
27303;SDS011;14791;52.392;13.092;2022-07-29T09:36:44;2.60;;;1.20;;
27303;SDS011;14791;52.392;13.092;2022-07-29T09:39:16;1.77;;;1.67;;
27303;SDS011;14791;52.392;13.092;2022-07-29T09:42:02;1.25;;;1.25;;
27303;SDS011;14791;52.392;13.092;2022-07-29T09:44:47;1.00;;;1.00;;
27303;SDS011;14791;52.392;13.092;2022-07-29T09:47:17;1.22;;;1.00;;
27303;SDS011;14791;52.392;13.092;2022-07-29T09:49:55;1.85;;;1.12;;
27303;SDS011;14791;52.392;13.092;2022-07-29T09:52:26;1.37;;;1.37;;
27303;SDS011;14791;52.392;13.092;2022-07-29T09:55:06;0.90;;;0.90;;
27303;SDS011;14791;52.392;13.092;2022-07-29T09:57:37;1.75;;;1.65;;
27303;SDS011;14791;52.392;13.092;2022-07-29T10:00:07;1.40;;;1.40;;
27303;SDS011;14791;52.392;13.092;2022-07-29T10:02:41;1.37;;;1.37;;
27303;SDS011;14791;52.392;13.092;2022-07-29T10:05:24;1.37;;;1.37;;
27303;SDS011;14791;52.392;13.092;2022-07-29T10:07:56;1.45;;;1.45;;
27303;SDS011;14791;52.392;13.092;2022-07-29T10:10:27;2.60;;;1.95;;
27303;SDS011;14791;52.392;13.092;2022-07-29T10:12:59;1.32;;;1.32;;
27303;SDS011;14791;52.392;13.092;2022-07-29T10:15:31;1.20;;;1.20;;
27303;SDS011;14791;52.392;13.092;2022-07-29T10:18:03;2.55;;;1.35;;
27303;SDS011;14791;52.392;13.092;2022-07-29T10:20:34;1.32;;;1.32;;
27303;SDS011;14791;52.392;13.092;2022-07-29T10:23:04;1.25;;;1.25;;
27303;SDS011;14791;52.392;13.092;2022-07-29T10:25:33;3.33;;;1.67;;
27303;SDS011;14791;52.392;13.092;2022-07-29T10:28:02;3.58;;;1.40;;
27303;SDS011;14791;52.392;13.092;2022-07-29T10:30:33;5.55;;;1.40;;
27303;SDS011;14791;52.392;13.092;2022-07-29T10:33:10;1.22;;;1.17;;
27303;SDS011;14791;52.392;13.092;2022-07-29T10:38:51;3.83;;;1.45;;
27303;SDS011;14791;52.392;13.092;2022-07-29T10:44:16;1.12;;;1.12;;
27303;SDS011;14791;52.392;13.092;2022-07-29T10:46:46;0.88;;;0.88;;
27303;SDS011;14791;52.392;13.092;2022-07-29T10:49:15;1.00;;;1.00;;
27303;SDS011;14791;52.392;13.092;2022-07-29T10:51:59;1.07;;;1.07;;
27303;SDS011;14791;52.392;13.092;2022-07-29T11:02:42;1.22;;;1.22;;
27303;SDS011;14791;52.392;13.092;2022-07-29T11:05:19;1.30;;;1.20;;
27303;SDS011;14791;52.392;13.092;2022-07-29T11:10:49;1.12;;;1.12;;
27303;SDS011;14791;52.392;13.092;2022-07-29T11:16:18;1.10;;;1.10;;
27303;SDS011;14791;52.392;13.092;2022-07-29T11:21:48;0.98;;;0.98;;
27303;SDS011;14791;52.392;13.092;2022-07-29T11:24:20;2.60;;;1.30;;
27303;SDS011;14791;52.392;13.092;2022-07-29T11:27:35;1.27;;;1.27;;
27303;SDS011;14791;52.392;13.092;2022-07-29T11:29:47;1.67;;;1.22;;
27303;SDS011;14791;52.392;13.092;2022-07-29T11:32:19;1.32;;;1.32;;
27303;SDS011;14791;52.392;13.092;2022-07-29T11:35:10;1.17;;;1.12;;
27303;SDS011;14791;52.392;13.092;2022-07-29T11:37:38;1.90;;;1.35;;
27303;SDS011;14791;52.392;13.092;2022-07-29T11:40:08;1.20;;;1.20;;
27303;SDS011;14791;52.392;13.092;2022-07-29T11:42:39;2.30;;;1.50;;
27303;SDS011;14791;52.392;13.092;2022-07-29T11:45:10;2.00;;;1.87;;
27303;SDS011;14791;52.392;13.092;2022-07-29T11:50:30;1.42;;;1.40;;
27303;SDS011;14791;52.392;13.092;2022-07-29T11:53:02;1.45;;;1.45;;
27303;SDS011;14791;52.392;13.092;2022-07-29T11:55:33;1.62;;;1.52;;
27303;SDS011;14791;52.392;13.092;2022-07-29T11:58:05;1.70;;;1.70;;
27303;SDS011;14791;52.392;13.092;2022-07-29T12:00:35;2.17;;;1.87;;
27303;SDS011;14791;52.392;13.092;2022-07-29T12:03:08;1.45;;;1.35;;
27303;SDS011;14791;52.392;13.092;2022-07-29T12:05:41;2.50;;;1.50;;
27303;SDS011;14791;52.392;13.092;2022-07-29T12:08:13;1.35;;;1.22;;
27303;SDS011;14791;52.392;13.092;2022-07-29T12:10:46;1.80;;;1.70;;
27303;SDS011;14791;52.392;13.092;2022-07-29T12:13:24;1.52;;;1.52;;
27303;SDS011;14791;52.392;13.092;2022-07-29T12:15:57;1.37;;;1.37;;
27303;SDS011;14791;52.392;13.092;2022-07-29T12:18:24;1.32;;;1.32;;
27303;SDS011;14791;52.392;13.092;2022-07-29T12:20:57;1.55;;;1.55;;
27303;SDS011;14791;52.392;13.092;2022-07-29T12:23:30;1.90;;;1.80;;
27303;SDS011;14791;52.392;13.092;2022-07-29T12:26:00;1.50;;;1.50;;
27303;SDS011;14791;52.392;13.092;2022-07-29T12:28:35;2.47;;;1.67;;
27303;SDS011;14791;52.392;13.092;2022-07-29T12:31:08;1.52;;;1.52;;
27303;SDS011;14791;52.392;13.092;2022-07-29T12:33:42;1.42;;;1.42;;
27303;SDS011;14791;52.392;13.092;2022-07-29T12:36:14;1.52;;;1.50;;
27303;SDS011;14791;52.392;13.092;2022-07-29T12:38:43;1.30;;;1.30;;
27303;SDS011;14791;52.392;13.092;2022-07-29T12:41:13;1.40;;;1.40;;
27303;SDS011;14791;52.392;13.092;2022-07-29T12:43:55;1.60;;;1.60;;
27303;SDS011;14791;52.392;13.092;2022-07-29T12:46:24;2.08;;;1.77;;
27303;SDS011;14791;52.392;13.092;2022-07-29T12:48:53;1.57;;;1.57;;
27303;SDS011;14791;52.392;13.092;2022-07-29T12:51:39;1.62;;;1.57;;
27303;SDS011;14791;52.392;13.092;2022-07-29T12:54:13;2.00;;;1.90;;
27303;SDS011;14791;52.392;13.092;2022-07-29T12:56:44;2.10;;;2.00;;
27303;SDS011;14791;52.392;13.092;2022-07-29T12:59:16;1.80;;;1.80;;
27303;SDS011;14791;52.392;13.092;2022-07-29T13:01:48;1.60;;;1.60;;
27303;SDS011;14791;52.392;13.092;2022-07-29T13:04:29;1.80;;;1.80;;
27303;SDS011;14791;52.392;13.092;2022-07-29T13:07:03;1.32;;;1.32;;
27303;SDS011;14791;52.392;13.092;2022-07-29T13:09:41;2.15;;;2.05;;
27303;SDS011;14791;52.392;13.092;2022-07-29T13:12:15;1.62;;;1.62;;
27303;SDS011;14791;52.392;13.092;2022-07-29T13:14:51;1.40;;;1.40;;
27303;SDS011;14791;52.392;13.092;2022-07-29T13:17:16;3.15;;;1.80;;
27303;SDS011;14791;52.392;13.092;2022-07-29T13:19:51;1.80;;;1.80;;
27303;SDS011;14791;52.392;13.092;2022-07-29T13:22:22;1.92;;;1.92;;
27303;SDS011;14791;52.392;13.092;2022-07-29T13:24:59;2.00;;;1.98;;
27303;SDS011;14791;52.392;13.092;2022-07-29T13:27:30;2.00;;;2.00;;
27303;SDS011;14791;52.392;13.092;2022-07-29T13:30:02;1.90;;;1.82;;
27303;SDS011;14791;52.392;13.092;2022-07-29T13:32:32;2.00;;;2.00;;
27303;SDS011;14791;52.392;13.092;2022-07-29T13:35:04;2.15;;;1.98;;
27303;SDS011;14791;52.392;13.092;2022-07-29T13:37:35;1.90;;;1.90;;
27303;SDS011;14791;52.392;13.092;2022-07-29T13:40:06;1.92;;;1.92;;
27303;SDS011;14791;52.392;13.092;2022-07-29T13:42:36;1.85;;;1.82;;
27303;SDS011;14791;52.392;13.092;2022-07-29T13:45:06;1.82;;;1.82;;
27303;SDS011;14791;52.392;13.092;2022-07-29T13:47:37;1.67;;;1.67;;
27303;SDS011;14791;52.392;13.092;2022-07-29T13:50:07;1.82;;;1.82;;
27303;SDS011;14791;52.392;13.092;2022-07-29T13:52:37;1.80;;;1.80;;
27303;SDS011;14791;52.392;13.092;2022-07-29T13:55:06;1.70;;;1.70;;
27303;SDS011;14791;52.392;13.092;2022-07-29T13:57:36;1.80;;;1.80;;
27303;SDS011;14791;52.392;13.092;2022-07-29T14:00:06;2.30;;;2.20;;
27303;SDS011;14791;52.392;13.092;2022-07-29T14:02:35;1.92;;;1.92;;
27303;SDS011;14791;52.392;13.092;2022-07-29T14:05:05;1.85;;;1.85;;
27303;SDS011;14791;52.392;13.092;2022-07-29T14:07:37;1.62;;;1.60;;
27303;SDS011;14791;52.392;13.092;2022-07-29T14:10:06;1.70;;;1.70;;
27303;SDS011;14791;52.392;13.092;2022-07-29T14:12:36;1.60;;;1.60;;
27303;SDS011;14791;52.392;13.092;2022-07-29T14:15:05;2.20;;;2.12;;
27303;SDS011;14791;52.392;13.092;2022-07-29T14:17:35;2.27;;;2.17;;
27303;SDS011;14791;52.392;13.092;2022-07-29T14:20:04;1.80;;;1.70;;
27303;SDS011;14791;52.392;13.092;2022-07-29T14:22:34;2.08;;;2.08;;
27303;SDS011;14791;52.392;13.092;2022-07-29T14:25:04;1.60;;;1.60;;
27303;SDS011;14791;52.392;13.092;2022-07-29T14:27:33;1.80;;;1.80;;
27303;SDS011;14791;52.392;13.092;2022-07-29T14:30:02;1.57;;;1.57;;
27303;SDS011;14791;52.392;13.092;2022-07-29T14:32:31;2.35;;;1.87;;
27303;SDS011;14791;52.392;13.092;2022-07-29T14:35:00;1.98;;;1.98;;
27303;SDS011;14791;52.392;13.092;2022-07-29T14:37:29;2.00;;;2.00;;
27303;SDS011;14791;52.392;13.092;2022-07-29T14:39:58;2.58;;;2.47;;
27303;SDS011;14791;52.392;13.092;2022-07-29T14:42:29;2.10;;;2.00;;
27303;SDS011;14791;52.392;13.092;2022-07-29T14:44:58;1.50;;;1.50;;
27303;SDS011;14791;52.392;13.092;2022-07-29T14:47:27;1.80;;;1.80;;
27303;SDS011;14791;52.392;13.092;2022-07-29T14:49:56;2.20;;;2.20;;
27303;SDS011;14791;52.392;13.092;2022-07-29T14:52:25;1.90;;;1.90;;
27303;SDS011;14791;52.392;13.092;2022-07-29T14:54:54;2.02;;;1.92;;
27303;SDS011;14791;52.392;13.092;2022-07-29T14:57:23;1.87;;;1.75;;
27303;SDS011;14791;52.392;13.092;2022-07-29T14:59:52;1.87;;;1.82;;
27303;SDS011;14791;52.392;13.092;2022-07-29T15:02:21;1.72;;;1.67;;
27303;SDS011;14791;52.392;13.092;2022-07-29T15:04:49;1.72;;;1.72;;
27303;SDS011;14791;52.392;13.092;2022-07-29T15:07:18;1.80;;;1.70;;
27303;SDS011;14791;52.392;13.092;2022-07-29T15:09:47;2.05;;;1.70;;
27303;SDS011;14791;52.392;13.092;2022-07-29T15:12:16;1.95;;;1.85;;
27303;SDS011;14791;52.392;13.092;2022-07-29T15:14:45;2.00;;;1.90;;
27303;SDS011;14791;52.392;13.092;2022-07-29T15:17:14;1.75;;;1.75;;
27303;SDS011;14791;52.392;13.092;2022-07-29T15:19:43;1.75;;;1.75;;
27303;SDS011;14791;52.392;13.092;2022-07-29T15:22:12;2.70;;;2.10;;
27303;SDS011;14791;52.392;13.092;2022-07-29T15:24:40;1.77;;;1.77;;
27303;SDS011;14791;52.392;13.092;2022-07-29T15:27:09;1.50;;;1.50;;
27303;SDS011;14791;52.392;13.092;2022-07-29T15:29:41;1.90;;;1.90;;
27303;SDS011;14791;52.392;13.092;2022-07-29T15:32:10;2.08;;;2.08;;